sensor_id;sensor_type;location;lat;lon;timestamp;P1;durP1;ratioP1;P2;durP2;ratioP2
19816;SDS011;68323;49.394;8.434;2023-07-13T00:01:03;4.10;;;1.70;;
19816;SDS011;68323;49.394;8.434;2023-07-13T00:03:29;5.37;;;1.37;;
19816;SDS011;68323;49.394;8.434;2023-07-13T00:06:00;7.03;;;1.70;;
19816;SDS011;68323;49.394;8.434;2023-07-13T00:08:26;3.43;;;1.50;;
19816;SDS011;68323;49.394;8.434;2023-07-13T00:10:54;4.30;;;1.40;;
19816;SDS011;68323;49.394;8.434;2023-07-13T00:13:20;6.37;;;2.20;;
19816;SDS011;68323;49.394;8.434;2023-07-13T00:15:45;5.03;;;1.60;;
19816;SDS011;68323;49.394;8.434;2023-07-13T00:18:11;5.47;;;1.70;;
19816;SDS011;68323;49.394;8.434;2023-07-13T00:20:37;8.77;;;1.70;;
19816;SDS011;68323;49.394;8.434;2023-07-13T00:23:02;6.10;;;1.50;;
19816;SDS011;68323;49.394;8.434;2023-07-13T00:25:28;4.67;;;1.70;;
19816;SDS011;68323;49.394;8.434;2023-07-13T00:27:54;5.30;;;1.50;;
19816;SDS011;68323;49.394;8.434;2023-07-13T00:30:20;5.23;;;1.60;;
19816;SDS011;68323;49.394;8.434;2023-07-13T00:32:46;5.03;;;1.50;;
19816;SDS011;68323;49.394;8.434;2023-07-13T00:35:12;4.57;;;1.70;;
19816;SDS011;68323;49.394;8.434;2023-07-13T00:37:39;5.03;;;1.80;;
19816;SDS011;68323;49.394;8.434;2023-07-13T00:40:05;5.73;;;1.80;;
19816;SDS011;68323;49.394;8.434;2023-07-13T00:42:31;7.23;;;2.00;;
19816;SDS011;68323;49.394;8.434;2023-07-13T00:45:00;4.93;;;1.70;;
19816;SDS011;68323;49.394;8.434;2023-07-13T00:47:31;5.00;;;1.90;;
19816;SDS011;68323;49.394;8.434;2023-07-13T00:49:57;5.77;;;1.70;;
19816;SDS011;68323;49.394;8.434;2023-07-13T00:52:22;6.73;;;2.10;;
19816;SDS011;68323;49.394;8.434;2023-07-13T00:54:48;9.03;;;2.43;;
19816;SDS011;68323;49.394;8.434;2023-07-13T00:57:15;8.97;;;2.53;;
19816;SDS011;68323;49.394;8.434;2023-07-13T00:59:46;9.27;;;2.33;;
19816;SDS011;68323;49.394;8.434;2023-07-13T01:02:14;6.87;;;1.90;;
19816;SDS011;68323;49.394;8.434;2023-07-13T01:04:41;10.30;;;1.97;;
19816;SDS011;68323;49.394;8.434;2023-07-13T01:07:08;6.50;;;1.90;;
19816;SDS011;68323;49.394;8.434;2023-07-13T01:09:35;7.30;;;1.90;;
19816;SDS011;68323;49.394;8.434;2023-07-13T01:12:01;8.90;;;2.07;;
19816;SDS011;68323;49.394;8.434;2023-07-13T01:14:26;8.33;;;2.13;;
19816;SDS011;68323;49.394;8.434;2023-07-13T01:16:52;6.30;;;2.03;;
19816;SDS011;68323;49.394;8.434;2023-07-13T01:19:38;8.80;;;2.27;;
19816;SDS011;68323;49.394;8.434;2023-07-13T01:22:08;6.53;;;2.10;;
19816;SDS011;68323;49.394;8.434;2023-07-13T01:24:36;8.50;;;2.37;;
19816;SDS011;68323;49.394;8.434;2023-07-13T01:27:08;6.67;;;2.30;;
19816;SDS011;68323;49.394;8.434;2023-07-13T01:29:36;5.53;;;1.80;;
19816;SDS011;68323;49.394;8.434;2023-07-13T01:32:07;5.93;;;2.00;;
19816;SDS011;68323;49.394;8.434;2023-07-13T01:34:35;6.77;;;1.90;;
19816;SDS011;68323;49.394;8.434;2023-07-13T01:37:02;5.07;;;2.30;;
19816;SDS011;68323;49.394;8.434;2023-07-13T01:39:28;5.17;;;2.00;;
19816;SDS011;68323;49.394;8.434;2023-07-13T01:41:53;6.23;;;1.80;;
19816;SDS011;68323;49.394;8.434;2023-07-13T01:44:19;5.17;;;1.90;;
19816;SDS011;68323;49.394;8.434;2023-07-13T01:46:44;3.93;;;2.07;;
19816;SDS011;68323;49.394;8.434;2023-07-13T01:49:10;4.57;;;1.87;;
19816;SDS011;68323;49.394;8.434;2023-07-13T01:51:36;3.13;;;1.80;;
19816;SDS011;68323;49.394;8.434;2023-07-13T01:54:01;4.53;;;1.80;;
19816;SDS011;68323;49.394;8.434;2023-07-13T01:56:27;5.47;;;1.80;;
19816;SDS011;68323;49.394;8.434;2023-07-13T01:58:53;5.67;;;1.77;;
19816;SDS011;68323;49.394;8.434;2023-07-13T02:01:18;5.30;;;2.03;;
19816;SDS011;68323;49.394;8.434;2023-07-13T02:03:44;4.20;;;1.73;;
19816;SDS011;68323;49.394;8.434;2023-07-13T02:06:09;5.80;;;2.20;;
19816;SDS011;68323;49.394;8.434;2023-07-13T02:08:35;3.23;;;2.10;;
19816;SDS011;68323;49.394;8.434;2023-07-13T02:11:02;4.77;;;2.07;;
19816;SDS011;68323;49.394;8.434;2023-07-13T02:13:28;4.80;;;1.90;;
19816;SDS011;68323;49.394;8.434;2023-07-13T02:15:53;4.87;;;2.00;;
19816;SDS011;68323;49.394;8.434;2023-07-13T02:18:19;4.97;;;2.40;;
19816;SDS011;68323;49.394;8.434;2023-07-13T02:20:44;5.50;;;2.30;;
19816;SDS011;68323;49.394;8.434;2023-07-13T02:23:10;9.10;;;2.40;;
19816;SDS011;68323;49.394;8.434;2023-07-13T02:25:36;7.53;;;2.13;;
19816;SDS011;68323;49.394;8.434;2023-07-13T02:28:02;4.93;;;2.47;;
19816;SDS011;68323;49.394;8.434;2023-07-13T02:30:28;7.13;;;2.53;;
19816;SDS011;68323;49.394;8.434;2023-07-13T02:32:55;5.87;;;2.53;;
19816;SDS011;68323;49.394;8.434;2023-07-13T02:35:21;9.97;;;2.70;;
19816;SDS011;68323;49.394;8.434;2023-07-13T02:37:47;7.50;;;2.40;;
19816;SDS011;68323;49.394;8.434;2023-07-13T02:40:12;15.00;;;3.10;;
19816;SDS011;68323;49.394;8.434;2023-07-13T02:42:38;10.97;;;2.80;;
19816;SDS011;68323;49.394;8.434;2023-07-13T02:45:04;7.87;;;2.80;;
19816;SDS011;68323;49.394;8.434;2023-07-13T02:47:31;9.47;;;3.03;;
19816;SDS011;68323;49.394;8.434;2023-07-13T02:49:57;9.53;;;2.73;;
19816;SDS011;68323;49.394;8.434;2023-07-13T02:52:22;11.57;;;2.70;;
19816;SDS011;68323;49.394;8.434;2023-07-13T02:54:48;7.73;;;2.83;;
19816;SDS011;68323;49.394;8.434;2023-07-13T02:57:14;9.37;;;2.90;;
19816;SDS011;68323;49.394;8.434;2023-07-13T02:59:39;7.87;;;2.90;;
19816;SDS011;68323;49.394;8.434;2023-07-13T03:02:05;15.07;;;3.20;;
19816;SDS011;68323;49.394;8.434;2023-07-13T03:04:30;10.03;;;3.30;;
19816;SDS011;68323;49.394;8.434;2023-07-13T03:06:56;11.13;;;2.50;;
19816;SDS011;68323;49.394;8.434;2023-07-13T03:09:24;7.77;;;2.27;;
19816;SDS011;68323;49.394;8.434;2023-07-13T03:11:53;4.47;;;2.00;;
19816;SDS011;68323;49.394;8.434;2023-07-13T03:14:20;5.60;;;2.07;;
19816;SDS011;68323;49.394;8.434;2023-07-13T03:16:47;4.80;;;2.17;;
19816;SDS011;68323;49.394;8.434;2023-07-13T03:19:12;5.10;;;2.10;;
19816;SDS011;68323;49.394;8.434;2023-07-13T03:21:38;3.87;;;2.20;;
19816;SDS011;68323;49.394;8.434;2023-07-13T03:24:03;6.57;;;2.10;;
19816;SDS011;68323;49.394;8.434;2023-07-13T03:26:29;7.37;;;2.07;;
19816;SDS011;68323;49.394;8.434;2023-07-13T03:28:55;5.07;;;2.00;;
19816;SDS011;68323;49.394;8.434;2023-07-13T03:31:24;5.10;;;2.07;;
19816;SDS011;68323;49.394;8.434;2023-07-13T03:33:51;5.87;;;2.20;;
19816;SDS011;68323;49.394;8.434;2023-07-13T03:36:22;4.10;;;1.80;;
19816;SDS011;68323;49.394;8.434;2023-07-13T03:38:50;4.37;;;2.37;;
19816;SDS011;68323;49.394;8.434;2023-07-13T03:41:21;5.40;;;2.30;;
19816;SDS011;68323;49.394;8.434;2023-07-13T03:43:47;5.27;;;2.10;;
19816;SDS011;68323;49.394;8.434;2023-07-13T03:46:14;5.37;;;2.30;;
19816;SDS011;68323;49.394;8.434;2023-07-13T03:48:41;10.47;;;2.47;;
19816;SDS011;68323;49.394;8.434;2023-07-13T03:51:08;5.30;;;2.47;;
19816;SDS011;68323;49.394;8.434;2023-07-13T03:53:37;5.30;;;2.10;;
19816;SDS011;68323;49.394;8.434;2023-07-13T03:56:04;6.03;;;2.20;;
19816;SDS011;68323;49.394;8.434;2023-07-13T03:58:31;5.83;;;2.27;;
19816;SDS011;68323;49.394;8.434;2023-07-13T04:01:02;5.40;;;2.00;;
19816;SDS011;68323;49.394;8.434;2023-07-13T04:03:30;3.27;;;2.10;;
19816;SDS011;68323;49.394;8.434;2023-07-13T04:05:57;6.67;;;2.47;;
19816;SDS011;68323;49.394;8.434;2023-07-13T04:08:25;4.37;;;2.10;;
19816;SDS011;68323;49.394;8.434;2023-07-13T04:10:55;6.90;;;1.97;;
19816;SDS011;68323;49.394;8.434;2023-07-13T04:13:22;4.10;;;2.00;;
19816;SDS011;68323;49.394;8.434;2023-07-13T04:15:48;4.00;;;2.30;;
19816;SDS011;68323;49.394;8.434;2023-07-13T04:18:14;7.93;;;2.93;;
19816;SDS011;68323;49.394;8.434;2023-07-13T04:20:39;7.50;;;2.93;;
19816;SDS011;68323;49.394;8.434;2023-07-13T04:23:05;4.67;;;2.50;;
19816;SDS011;68323;49.394;8.434;2023-07-13T04:25:30;4.07;;;2.30;;
19816;SDS011;68323;49.394;8.434;2023-07-13T04:27:56;3.97;;;2.23;;
19816;SDS011;68323;49.394;8.434;2023-07-13T04:30:22;4.10;;;2.50;;
19816;SDS011;68323;49.394;8.434;2023-07-13T04:32:48;8.33;;;2.27;;
19816;SDS011;68323;49.394;8.434;2023-07-13T04:35:14;6.90;;;2.93;;
19816;SDS011;68323;49.394;8.434;2023-07-13T04:37:41;4.53;;;2.67;;
19816;SDS011;68323;49.394;8.434;2023-07-13T04:40:07;4.37;;;2.40;;
19816;SDS011;68323;49.394;8.434;2023-07-13T04:42:36;6.37;;;2.50;;
19816;SDS011;68323;49.394;8.434;2023-07-13T04:45:03;4.50;;;2.60;;
19816;SDS011;68323;49.394;8.434;2023-07-13T04:47:31;5.17;;;2.30;;
19816;SDS011;68323;49.394;8.434;2023-07-13T04:49:56;3.83;;;1.90;;
19816;SDS011;68323;49.394;8.434;2023-07-13T04:52:22;7.03;;;2.20;;
19816;SDS011;68323;49.394;8.434;2023-07-13T04:54:48;4.20;;;2.57;;
19816;SDS011;68323;49.394;8.434;2023-07-13T04:57:14;6.70;;;2.90;;
19816;SDS011;68323;49.394;8.434;2023-07-13T04:59:39;5.20;;;3.00;;
19816;SDS011;68323;49.394;8.434;2023-07-13T05:02:05;6.80;;;2.87;;
19816;SDS011;68323;49.394;8.434;2023-07-13T05:04:31;14.67;;;4.70;;
19816;SDS011;68323;49.394;8.434;2023-07-13T05:06:57;9.73;;;3.90;;
19816;SDS011;68323;49.394;8.434;2023-07-13T05:09:22;10.77;;;3.33;;
19816;SDS011;68323;49.394;8.434;2023-07-13T05:11:48;14.53;;;3.70;;
19816;SDS011;68323;49.394;8.434;2023-07-13T05:14:13;10.37;;;4.10;;
19816;SDS011;68323;49.394;8.434;2023-07-13T05:16:40;10.50;;;3.70;;
19816;SDS011;68323;49.394;8.434;2023-07-13T05:19:06;10.27;;;3.57;;
19816;SDS011;68323;49.394;8.434;2023-07-13T05:21:31;16.23;;;6.60;;
19816;SDS011;68323;49.394;8.434;2023-07-13T05:23:57;11.57;;;4.10;;
19816;SDS011;68323;49.394;8.434;2023-07-13T05:26:22;6.63;;;3.60;;
19816;SDS011;68323;49.394;8.434;2023-07-13T05:28:48;9.80;;;3.70;;
19816;SDS011;68323;49.394;8.434;2023-07-13T05:31:13;8.80;;;3.97;;
19816;SDS011;68323;49.394;8.434;2023-07-13T05:33:39;8.87;;;3.70;;
19816;SDS011;68323;49.394;8.434;2023-07-13T05:36:05;12.47;;;3.57;;
19816;SDS011;68323;49.394;8.434;2023-07-13T05:38:32;6.90;;;3.00;;
19816;SDS011;68323;49.394;8.434;2023-07-13T05:40:57;10.47;;;2.80;;
19816;SDS011;68323;49.394;8.434;2023-07-13T05:43:24;5.65;;;2.92;;
19816;SDS011;68323;49.394;8.434;2023-07-13T05:45:53;8.38;;;2.50;;
19816;SDS011;68323;49.394;8.434;2023-07-13T05:48:19;11.25;;;2.53;;
19816;SDS011;68323;49.394;8.434;2023-07-13T05:50:46;9.55;;;2.70;;
19816;SDS011;68323;49.394;8.434;2023-07-13T05:53:12;8.73;;;2.80;;
19816;SDS011;68323;49.394;8.434;2023-07-13T05:55:41;7.65;;;2.67;;
19816;SDS011;68323;49.394;8.434;2023-07-13T05:58:08;11.85;;;2.83;;
19816;SDS011;68323;49.394;8.434;2023-07-13T06:00:34;5.07;;;2.00;;
19816;SDS011;68323;49.394;8.434;2023-07-13T06:03:00;6.70;;;2.30;;
19816;SDS011;68323;49.394;8.434;2023-07-13T06:05:25;6.18;;;2.20;;
19816;SDS011;68323;49.394;8.434;2023-07-13T06:07:53;8.73;;;2.50;;
19816;SDS011;68323;49.394;8.434;2023-07-13T06:10:19;5.70;;;2.42;;
19816;SDS011;68323;49.394;8.434;2023-07-13T06:12:45;8.10;;;2.15;;
19816;SDS011;68323;49.394;8.434;2023-07-13T06:15:11;9.73;;;1.90;;
19816;SDS011;68323;49.394;8.434;2023-07-13T06:17:37;10.55;;;1.80;;
19816;SDS011;68323;49.394;8.434;2023-07-13T06:20:02;5.45;;;1.95;;
19816;SDS011;68323;49.394;8.434;2023-07-13T06:22:28;10.02;;;2.17;;
19816;SDS011;68323;49.394;8.434;2023-07-13T06:24:54;4.13;;;2.10;;
19816;SDS011;68323;49.394;8.434;2023-07-13T06:27:19;4.10;;;1.67;;
19816;SDS011;68323;49.394;8.434;2023-07-13T06:29:45;4.88;;;1.73;;
19816;SDS011;68323;49.394;8.434;2023-07-13T06:32:11;6.03;;;1.60;;
19816;SDS011;68323;49.394;8.434;2023-07-13T06:34:36;6.05;;;1.70;;
19816;SDS011;68323;49.394;8.434;2023-07-13T06:37:02;4.53;;;1.70;;
19816;SDS011;68323;49.394;8.434;2023-07-13T06:39:27;6.85;;;2.00;;
19816;SDS011;68323;49.394;8.434;2023-07-13T06:41:53;5.28;;;1.75;;
19816;SDS011;68323;49.394;8.434;2023-07-13T06:44:18;3.65;;;1.58;;
19816;SDS011;68323;49.394;8.434;2023-07-13T06:46:44;10.50;;;2.08;;
19816;SDS011;68323;49.394;8.434;2023-07-13T06:49:09;5.13;;;1.88;;
19816;SDS011;68323;49.394;8.434;2023-07-13T06:51:35;3.15;;;1.70;;
19816;SDS011;68323;49.394;8.434;2023-07-13T06:54:00;2.70;;;1.50;;
19816;SDS011;68323;49.394;8.434;2023-07-13T06:56:26;4.50;;;1.70;;
19816;SDS011;68323;49.394;8.434;2023-07-13T06:58:52;28.45;;;4.43;;
19816;SDS011;68323;49.394;8.434;2023-07-13T07:01:17;7.78;;;1.67;;
19816;SDS011;68323;49.394;8.434;2023-07-13T07:03:43;5.43;;;1.92;;
19816;SDS011;68323;49.394;8.434;2023-07-13T07:06:18;20.98;;;3.78;;
19816;SDS011;68323;49.394;8.434;2023-07-13T07:08:45;5.70;;;1.55;;
19816;SDS011;68323;49.394;8.434;2023-07-13T07:11:12;7.53;;;2.17;;
19816;SDS011;68323;49.394;8.434;2023-07-13T07:13:39;7.93;;;2.08;;
19816;SDS011;68323;49.394;8.434;2023-07-13T07:16:05;4.25;;;1.58;;
19816;SDS011;68323;49.394;8.434;2023-07-13T07:18:31;6.68;;;1.70;;
19816;SDS011;68323;49.394;8.434;2023-07-13T07:20:57;12.57;;;3.00;;
19816;SDS011;68323;49.394;8.434;2023-07-13T07:23:23;9.52;;;2.47;;
19816;SDS011;68323;49.394;8.434;2023-07-13T07:25:48;3.85;;;1.38;;
19816;SDS011;68323;49.394;8.434;2023-07-13T07:28:15;4.22;;;1.45;;
19816;SDS011;68323;49.394;8.434;2023-07-13T07:30:43;6.15;;;1.60;;
19816;SDS011;68323;49.394;8.434;2023-07-13T07:33:12;5.47;;;2.20;;
19816;SDS011;68323;49.394;8.434;2023-07-13T07:35:38;2.78;;;1.38;;
19816;SDS011;68323;49.394;8.434;2023-07-13T07:38:04;5.63;;;1.73;;
19816;SDS011;68323;49.394;8.434;2023-07-13T07:40:30;7.32;;;1.80;;
19816;SDS011;68323;49.394;8.434;2023-07-13T07:42:56;3.80;;;1.70;;
19816;SDS011;68323;49.394;8.434;2023-07-13T07:45:22;5.20;;;1.70;;
19816;SDS011;68323;49.394;8.434;2023-07-13T07:47:48;6.18;;;1.55;;
19816;SDS011;68323;49.394;8.434;2023-07-13T07:50:14;6.10;;;1.67;;
19816;SDS011;68323;49.394;8.434;2023-07-13T07:52:39;3.90;;;1.90;;
19816;SDS011;68323;49.394;8.434;2023-07-13T07:55:06;5.13;;;1.83;;
19816;SDS011;68323;49.394;8.434;2023-07-13T07:57:32;4.00;;;1.80;;
19816;SDS011;68323;49.394;8.434;2023-07-13T07:59:58;8.27;;;2.13;;
19816;SDS011;68323;49.394;8.434;2023-07-13T08:02:24;7.47;;;2.58;;
19816;SDS011;68323;49.394;8.434;2023-07-13T08:04:50;5.90;;;1.90;;
19816;SDS011;68323;49.394;8.434;2023-07-13T08:07:16;5.63;;;1.73;;
19816;SDS011;68323;49.394;8.434;2023-07-13T08:09:41;1.95;;;1.33;;
19816;SDS011;68323;49.394;8.434;2023-07-13T08:12:07;6.53;;;1.90;;
19816;SDS011;68323;49.394;8.434;2023-07-13T08:14:33;4.13;;;1.63;;
19816;SDS011;68323;49.394;8.434;2023-07-13T08:16:58;9.48;;;1.77;;
19816;SDS011;68323;49.394;8.434;2023-07-13T08:19:24;5.13;;;1.77;;
19816;SDS011;68323;49.394;8.434;2023-07-13T08:21:49;4.68;;;2.00;;
19816;SDS011;68323;49.394;8.434;2023-07-13T08:24:15;3.92;;;1.60;;
19816;SDS011;68323;49.394;8.434;2023-07-13T08:26:43;7.47;;;1.90;;
19816;SDS011;68323;49.394;8.434;2023-07-13T08:29:09;6.18;;;1.90;;
19816;SDS011;68323;49.394;8.434;2023-07-13T08:31:34;4.38;;;1.88;;
19816;SDS011;68323;49.394;8.434;2023-07-13T08:34:00;5.40;;;1.75;;
19816;SDS011;68323;49.394;8.434;2023-07-13T08:36:25;6.82;;;1.70;;
19816;SDS011;68323;49.394;8.434;2023-07-13T08:38:52;3.97;;;1.63;;
19816;SDS011;68323;49.394;8.434;2023-07-13T08:41:18;4.68;;;1.92;;
19816;SDS011;68323;49.394;8.434;2023-07-13T08:43:45;5.85;;;2.20;;
19816;SDS011;68323;49.394;8.434;2023-07-13T08:46:19;3.55;;;1.90;;
19816;SDS011;68323;49.394;8.434;2023-07-13T08:48:53;6.20;;;1.98;;
19816;SDS011;68323;49.394;8.434;2023-07-13T08:54:17;6.82;;;2.50;;
19816;SDS011;68323;49.394;8.434;2023-07-13T08:56:51;8.73;;;1.73;;
19816;SDS011;68323;49.394;8.434;2023-07-13T08:59:19;3.83;;;1.45;;
19816;SDS011;68323;49.394;8.434;2023-07-13T09:02:02;5.22;;;1.55;;
19816;SDS011;68323;49.394;8.434;2023-07-13T09:04:37;4.57;;;1.80;;
19816;SDS011;68323;49.394;8.434;2023-07-13T09:07:35;5.00;;;1.85;;
19816;SDS011;68323;49.394;8.434;2023-07-13T09:10:28;7.75;;;1.70;;
19816;SDS011;68323;49.394;8.434;2023-07-13T09:15:43;22.70;;;2.97;;
19816;SDS011;68323;49.394;8.434;2023-07-13T09:18:11;17.58;;;3.13;;
19816;SDS011;68323;49.394;8.434;2023-07-13T09:21:13;8.50;;;1.48;;
19816;SDS011;68323;49.394;8.434;2023-07-13T09:23:40;4.28;;;1.60;;
19816;SDS011;68323;49.394;8.434;2023-07-13T09:28:44;3.28;;;1.52;;
19816;SDS011;68323;49.394;8.434;2023-07-13T09:31:13;5.65;;;1.80;;
19816;SDS011;68323;49.394;8.434;2023-07-13T09:33:42;7.72;;;1.90;;
19816;SDS011;68323;49.394;8.434;2023-07-13T09:38:49;6.57;;;2.13;;
19816;SDS011;68323;49.394;8.434;2023-07-13T09:42:14;2.83;;;1.73;;
19816;SDS011;68323;49.394;8.434;2023-07-13T09:44:37;3.25;;;1.60;;
19816;SDS011;68323;49.394;8.434;2023-07-13T09:47:20;3.08;;;1.65;;
19816;SDS011;68323;49.394;8.434;2023-07-13T09:49:58;6.03;;;2.00;;
19816;SDS011;68323;49.394;8.434;2023-07-13T09:52:27;8.68;;;1.80;;
19816;SDS011;68323;49.394;8.434;2023-07-13T09:55:03;3.50;;;1.55;;
19816;SDS011;68323;49.394;8.434;2023-07-13T09:57:29;4.22;;;1.83;;
19816;SDS011;68323;49.394;8.434;2023-07-13T09:59:56;3.60;;;1.42;;
19816;SDS011;68323;49.394;8.434;2023-07-13T10:05:00;5.85;;;1.60;;
19816;SDS011;68323;49.394;8.434;2023-07-13T10:07:28;4.72;;;1.40;;
19816;SDS011;68323;49.394;8.434;2023-07-13T10:09:55;6.18;;;1.48;;
19816;SDS011;68323;49.394;8.434;2023-07-13T10:12:23;3.67;;;1.40;;
19816;SDS011;68323;49.394;8.434;2023-07-13T10:14:54;5.38;;;1.50;;
19816;SDS011;68323;49.394;8.434;2023-07-13T10:17:25;4.05;;;1.55;;
19816;SDS011;68323;49.394;8.434;2023-07-13T10:19:55;3.95;;;1.50;;
19816;SDS011;68323;49.394;8.434;2023-07-13T10:25:18;4.43;;;1.52;;
19816;SDS011;68323;49.394;8.434;2023-07-13T10:27:47;4.15;;;1.50;;
19816;SDS011;68323;49.394;8.434;2023-07-13T10:30:24;5.15;;;1.50;;
19816;SDS011;68323;49.394;8.434;2023-07-13T10:32:57;5.57;;;1.52;;
19816;SDS011;68323;49.394;8.434;2023-07-13T10:35:24;6.20;;;1.58;;
19816;SDS011;68323;49.394;8.434;2023-07-13T10:37:55;2.75;;;1.25;;
19816;SDS011;68323;49.394;8.434;2023-07-13T10:41:15;4.97;;;1.50;;
19816;SDS011;68323;49.394;8.434;2023-07-13T10:43:35;4.80;;;1.40;;
19816;SDS011;68323;49.394;8.434;2023-07-13T10:46:03;2.70;;;1.17;;
19816;SDS011;68323;49.394;8.434;2023-07-13T10:48:35;8.43;;;1.58;;
19816;SDS011;68323;49.394;8.434;2023-07-13T10:51:03;2.72;;;1.30;;
19816;SDS011;68323;49.394;8.434;2023-07-13T10:53:32;6.38;;;1.40;;
19816;SDS011;68323;49.394;8.434;2023-07-13T10:56:05;2.42;;;1.33;;
19816;SDS011;68323;49.394;8.434;2023-07-13T10:58:47;4.32;;;1.45;;
19816;SDS011;68323;49.394;8.434;2023-07-13T11:01:46;2.80;;;1.35;;
19816;SDS011;68323;49.394;8.434;2023-07-13T11:04:18;6.40;;;1.20;;
19816;SDS011;68323;49.394;8.434;2023-07-13T11:06:45;3.65;;;1.40;;
19816;SDS011;68323;49.394;8.434;2023-07-13T11:09:30;2.00;;;1.20;;
19816;SDS011;68323;49.394;8.434;2023-07-13T11:12:01;6.03;;;1.35;;
19816;SDS011;68323;49.394;8.434;2023-07-13T11:14:43;3.92;;;1.30;;
19816;SDS011;68323;49.394;8.434;2023-07-13T11:20:35;5.80;;;1.60;;
19816;SDS011;68323;49.394;8.434;2023-07-13T11:25:38;6.30;;;1.38;;
19816;SDS011;68323;49.394;8.434;2023-07-13T11:30:36;3.60;;;1.30;;
19816;SDS011;68323;49.394;8.434;2023-07-13T11:33:28;3.42;;;1.10;;
19816;SDS011;68323;49.394;8.434;2023-07-13T11:36:14;3.45;;;1.38;;
19816;SDS011;68323;49.394;8.434;2023-07-13T11:38:42;3.70;;;1.15;;
19816;SDS011;68323;49.394;8.434;2023-07-13T11:41:31;18.88;;;4.22;;
19816;SDS011;68323;49.394;8.434;2023-07-13T11:44:19;6.55;;;1.45;;
19816;SDS011;68323;49.394;8.434;2023-07-13T11:46:50;5.18;;;1.58;;
19816;SDS011;68323;49.394;8.434;2023-07-13T11:49:18;5.70;;;1.48;;
19816;SDS011;68323;49.394;8.434;2023-07-13T11:51:45;3.30;;;1.48;;
19816;SDS011;68323;49.394;8.434;2023-07-13T11:57:01;5.32;;;1.45;;
19816;SDS011;68323;49.394;8.434;2023-07-13T11:59:31;5.05;;;1.45;;
19816;SDS011;68323;49.394;8.434;2023-07-13T12:01:58;3.45;;;1.27;;
19816;SDS011;68323;49.394;8.434;2023-07-13T12:04:31;4.40;;;1.35;;
19816;SDS011;68323;49.394;8.434;2023-07-13T12:07:06;7.50;;;1.45;;
19816;SDS011;68323;49.394;8.434;2023-07-13T12:09:39;7.88;;;1.80;;
19816;SDS011;68323;49.394;8.434;2023-07-13T12:12:09;4.13;;;1.20;;
19816;SDS011;68323;49.394;8.434;2023-07-13T12:14:42;2.95;;;1.25;;
19816;SDS011;68323;49.394;8.434;2023-07-13T12:17:09;5.53;;;1.23;;
19816;SDS011;68323;49.394;8.434;2023-07-13T12:19:41;7.00;;;1.65;;
19816;SDS011;68323;49.394;8.434;2023-07-13T12:22:08;5.38;;;1.48;;
19816;SDS011;68323;49.394;8.434;2023-07-13T12:24:37;5.50;;;1.50;;
19816;SDS011;68323;49.394;8.434;2023-07-13T12:27:04;3.50;;;1.38;;
19816;SDS011;68323;49.394;8.434;2023-07-13T12:29:31;4.35;;;1.30;;
19816;SDS011;68323;49.394;8.434;2023-07-13T12:31:57;6.85;;;1.30;;
19816;SDS011;68323;49.394;8.434;2023-07-13T12:34:24;5.25;;;1.45;;
19816;SDS011;68323;49.394;8.434;2023-07-13T12:36:55;3.83;;;1.73;;
19816;SDS011;68323;49.394;8.434;2023-07-13T12:39:25;3.20;;;1.48;;
19816;SDS011;68323;49.394;8.434;2023-07-13T12:44:42;3.00;;;1.50;;
19816;SDS011;68323;49.394;8.434;2023-07-13T12:47:09;3.28;;;1.35;;
19816;SDS011;68323;49.394;8.434;2023-07-13T12:49:50;3.05;;;1.40;;
19816;SDS011;68323;49.394;8.434;2023-07-13T12:52:23;4.35;;;1.30;;
19816;SDS011;68323;49.394;8.434;2023-07-13T12:54:56;3.75;;;1.20;;
19816;SDS011;68323;49.394;8.434;2023-07-13T12:57:23;2.90;;;1.35;;
19816;SDS011;68323;49.394;8.434;2023-07-13T12:59:51;2.97;;;1.42;;
19816;SDS011;68323;49.394;8.434;2023-07-13T13:02:36;3.17;;;1.30;;
19816;SDS011;68323;49.394;8.434;2023-07-13T13:05:01;13.45;;;1.83;;
19816;SDS011;68323;49.394;8.434;2023-07-13T13:07:29;3.80;;;1.60;;
19816;SDS011;68323;49.394;8.434;2023-07-13T13:09:54;4.13;;;1.40;;
19816;SDS011;68323;49.394;8.434;2023-07-13T13:12:21;4.35;;;1.48;;
19816;SDS011;68323;49.394;8.434;2023-07-13T13:14:49;5.22;;;1.50;;
19816;SDS011;68323;49.394;8.434;2023-07-13T13:17:21;2.08;;;1.20;;
19816;SDS011;68323;49.394;8.434;2023-07-13T13:19:49;3.13;;;1.20;;
19816;SDS011;68323;49.394;8.434;2023-07-13T13:22:18;2.55;;;1.33;;
19816;SDS011;68323;49.394;8.434;2023-07-13T13:24:43;3.08;;;1.50;;
19816;SDS011;68323;49.394;8.434;2023-07-13T13:27:27;3.40;;;1.45;;
19816;SDS011;68323;49.394;8.434;2023-07-13T13:29:52;3.83;;;1.40;;
19816;SDS011;68323;49.394;8.434;2023-07-13T13:32:18;3.20;;;1.45;;
19816;SDS011;68323;49.394;8.434;2023-07-13T13:34:44;3.42;;;1.23;;
19816;SDS011;68323;49.394;8.434;2023-07-13T13:37:16;5.45;;;1.23;;
19816;SDS011;68323;49.394;8.434;2023-07-13T13:39:46;3.85;;;1.30;;
19816;SDS011;68323;49.394;8.434;2023-07-13T13:42:13;2.95;;;1.40;;
19816;SDS011;68323;49.394;8.434;2023-07-13T13:44:39;4.00;;;1.40;;
19816;SDS011;68323;49.394;8.434;2023-07-13T13:47:07;5.45;;;1.45;;
19816;SDS011;68323;49.394;8.434;2023-07-13T13:49:58;3.55;;;1.17;;
19816;SDS011;68323;49.394;8.434;2023-07-13T13:52:24;3.00;;;1.55;;
19816;SDS011;68323;49.394;8.434;2023-07-13T13:54:50;3.03;;;1.45;;
19816;SDS011;68323;49.394;8.434;2023-07-13T13:57:20;4.05;;;1.50;;
19816;SDS011;68323;49.394;8.434;2023-07-13T13:59:48;3.35;;;1.40;;
19816;SDS011;68323;49.394;8.434;2023-07-13T14:02:47;3.63;;;1.50;;
19816;SDS011;68323;49.394;8.434;2023-07-13T14:05:09;6.68;;;1.40;;
19816;SDS011;68323;49.394;8.434;2023-07-13T14:07:37;2.50;;;1.45;;
19816;SDS011;68323;49.394;8.434;2023-07-13T14:10:05;5.80;;;1.38;;
19816;SDS011;68323;49.394;8.434;2023-07-13T14:12:40;5.13;;;1.40;;
19816;SDS011;68323;49.394;8.434;2023-07-13T14:15:13;3.70;;;1.40;;
19816;SDS011;68323;49.394;8.434;2023-07-13T14:17:48;3.88;;;1.42;;
19816;SDS011;68323;49.394;8.434;2023-07-13T14:20:15;3.90;;;1.50;;
19816;SDS011;68323;49.394;8.434;2023-07-13T14:22:41;4.20;;;1.20;;
19816;SDS011;68323;49.394;8.434;2023-07-13T14:25:10;5.18;;;1.85;;
19816;SDS011;68323;49.394;8.434;2023-07-13T14:27:40;11.10;;;1.95;;
19816;SDS011;68323;49.394;8.434;2023-07-13T14:30:17;3.30;;;1.55;;
19816;SDS011;68323;49.394;8.434;2023-07-13T14:32:46;4.72;;;1.60;;
19816;SDS011;68323;49.394;8.434;2023-07-13T14:35:16;5.07;;;1.45;;
19816;SDS011;68323;49.394;8.434;2023-07-13T14:37:43;5.40;;;1.60;;
19816;SDS011;68323;49.394;8.434;2023-07-13T14:40:14;6.32;;;1.60;;
19816;SDS011;68323;49.394;8.434;2023-07-13T14:42:41;4.68;;;1.30;;
19816;SDS011;68323;49.394;8.434;2023-07-13T14:45:14;8.27;;;1.50;;
19816;SDS011;68323;49.394;8.434;2023-07-13T14:47:40;6.35;;;1.88;;
19816;SDS011;68323;49.394;8.434;2023-07-13T14:50:15;3.80;;;1.20;;
19816;SDS011;68323;49.394;8.434;2023-07-13T14:52:42;4.85;;;1.27;;
19816;SDS011;68323;49.394;8.434;2023-07-13T14:55:12;6.22;;;1.60;;
19816;SDS011;68323;49.394;8.434;2023-07-13T14:57:39;5.32;;;1.50;;
19816;SDS011;68323;49.394;8.434;2023-07-13T15:00:09;2.72;;;1.27;;
19816;SDS011;68323;49.394;8.434;2023-07-13T15:02:40;4.55;;;1.33;;
19816;SDS011;68323;49.394;8.434;2023-07-13T15:05:16;4.05;;;1.75;;
19816;SDS011;68323;49.394;8.434;2023-07-13T15:07:44;7.68;;;1.50;;
19816;SDS011;68323;49.394;8.434;2023-07-13T15:10:13;4.45;;;1.40;;
19816;SDS011;68323;49.394;8.434;2023-07-13T15:12:46;6.15;;;1.25;;
19816;SDS011;68323;49.394;8.434;2023-07-13T15:15:13;9.60;;;1.40;;
19816;SDS011;68323;49.394;8.434;2023-07-13T15:21:01;3.90;;;1.42;;
19816;SDS011;68323;49.394;8.434;2023-07-13T15:23:29;2.72;;;1.27;;
19816;SDS011;68323;49.394;8.434;2023-07-13T15:25:54;2.70;;;1.23;;
19816;SDS011;68323;49.394;8.434;2023-07-13T15:28:20;3.60;;;1.20;;